Terminal Aerodrome Forecast
Issued by NWS Atlanta, GA

Home | Current Version | Previous Version | Text Only | Print | Product List | Glossary On
Versions: 1 2 3 4 5 6 7 8 9 10 11 12 13 14 15 16 17 18
000
FTUS42 KFFC 260520
TAFMCN
TAF
KMCN 260520Z 2606/2706 00000KT P6SM SCT300
      TEMPO 2608/2612 3SM BR
     FM261600 VRB03KT P6SM SCT250
     FM270000 00000KT P6SM SCT200=

USA.gov is the U.S. government's official web portal to all federal, state and local government web resources and services.